Bullhead City, AZ

5:00 PM MST on January 23, 2018 (GMT -0700)
Laughlin-Bullhead International

Weather History for KIFP - August, 2014

Change the Weather History Date:

Tuesday, August 26, 2014

  Actual Average Record
Temperature  
Mean Temperature 90 °F -  
Max Temperature 98 °F 104 °F 114 °F (2001)
Min Temperature 82 °F 82 °F 67 °F (1989)
Cooling Degree Days 25    
Growing Degree Days 40 (Base 50)    
Moisture  
Dew Point 61 °F    
Average Humidity 40    
Maximum Humidity 54    
Minimum Humidity 22    
Precipitation  
Precipitation 0.00 in - - ()
Sea Level Pressure  
Sea Level Pressure 29.88 in    
Wind  
Wind Speed 9 mph (South)    
Max Wind Speed 20 mph    
Max Gust Speed 29 mph    
Visibility 10 miles    
Events Thunderstorm    
Averages and records for this station are not official NWS values.
T = Trace of Precipitation, MM = Missing Value Source: NWS Daily Summary

Daily Weather History Graph

Daily Weather History Graph

Search for Another Location

Airport or City:

Trip Planner

Search our weather history database for the weather conditions in past years. The results will help you decide how hot, cold, wet, or windy it might be!

Date:

Astronomy

Aug. 26, 2014 Rise Set
Actual Time 6:06 AM MST 7:13 PM MST
Civil Twilight 5:40 AM MST 7:39 PM MST
Nautical Twilight 5:09 AM MST 8:10 PM MST
Astronomical Twilight 4:36 AM MST 8:42 PM MST
Moon 7:06 AM MST (8/26) 7:41 PM MST (8/26)
Length of Visible Light 13h 58m
Length of Day
13h 06m
New Moon, 1% of the Moon is Illuminated
Aug 26
New Moon
Sep 2
First Quarter
Sep 8
Full
Sep 15
Last Quarter
Sep 23
New

Hourly Weather History & Observations

Time (MST) Temp. Heat Index Dew Point Humidity Pressure Visibility Wind Dir Wind Speed Gust Speed Precip Events Conditions
12:15 AM 86.0 °F 86.1 °F 60.8 °F 43% 29.84 in 10.0 mi SSW 9.2 mph - N/A   Clear
12:35 AM 84.2 °F 85.0 °F 62.6 °F 48% 29.85 in 10.0 mi SSW 8.1 mph - N/A   Clear
12:55 AM 84.2 °F 85.0 °F 62.6 °F 48% 29.85 in 10.0 mi SSW 8.1 mph - N/A   Clear
1:15 AM 84.2 °F 85.0 °F 62.6 °F 48% 29.86 in 10.0 mi SSW 5.8 mph - N/A   Clear
1:35 AM 84.2 °F 85.0 °F 62.6 °F 48% 29.86 in 10.0 mi SSW 6.9 mph - N/A   Clear
1:55 AM 84.2 °F 85.0 °F 62.6 °F 48% 29.85 in 10.0 mi South 10.4 mph - N/A   Clear
2:15 AM 86.0 °F 86.6 °F 62.6 °F 45% 29.86 in 10.0 mi South 10.4 mph - N/A   Clear
2:35 AM 86.0 °F 86.6 °F 62.6 °F 45% 29.86 in 10.0 mi South 12.7 mph - N/A   Clear
2:55 AM 86.0 °F 86.6 °F 62.6 °F 45% 29.86 in 10.0 mi South 9.2 mph - N/A   Clear
3:15 AM 86.0 °F 86.6 °F 62.6 °F 45% 29.87 in 10.0 mi SW 5.8 mph - N/A   Clear
3:35 AM 84.2 °F 85.6 °F 64.4 °F 51% 29.87 in 10.0 mi South 5.8 mph - N/A   Clear
3:55 AM 84.2 °F 85.6 °F 64.4 °F 51% 29.87 in 10.0 mi SSW 3.5 mph - N/A   Clear
4:15 AM 82.4 °F 83.9 °F 64.4 °F 54% 29.87 in 10.0 mi Calm Calm - N/A   Clear
4:35 AM 82.4 °F 83.9 °F 64.4 °F 54% 29.87 in 10.0 mi Calm Calm - N/A   Clear
4:55 AM 82.4 °F 83.9 °F 64.4 °F 54% 29.88 in 10.0 mi Calm Calm - N/A   Clear
5:15 AM 82.4 °F 83.9 °F 64.4 °F 54% 29.88 in 10.0 mi Calm Calm - N/A   Partly Cloudy
5:35 AM 82.4 °F 83.9 °F 64.4 °F 54% 29.89 in 10.0 mi Calm Calm - N/A   Partly Cloudy
5:55 AM 82.4 °F 83.9 °F 64.4 °F 54% 29.89 in 10.0 mi Calm Calm - N/A   Clear
6:15 AM 82.4 °F 83.9 °F 64.4 °F 54% 29.89 in 10.0 mi Calm Calm - N/A   Clear
6:55 AM 82.4 °F 83.9 °F 64.4 °F 54% 29.91 in 10.0 mi Calm Calm - N/A   Scattered Clouds
7:55 AM 84.2 °F 85.6 °F 64.4 °F 51% 29.91 in 10.0 mi Calm Calm - N/A   Clear
8:15 AM 84.2 °F 85.0 °F 62.6 °F 48% 29.92 in 10.0 mi SSW 6.9 mph - N/A Thunderstorm Thunderstorm
8:35 AM 84.2 °F 85.0 °F 62.6 °F 48% 29.92 in 10.0 mi SSW 5.8 mph - N/A Thunderstorm Clear
8:55 AM 84.2 °F 85.6 °F 64.4 °F 51% 29.93 in 10.0 mi SW 4.6 mph - N/A   Clear
9:15 AM 84.2 °F 85.6 °F 64.4 °F 51% 29.94 in 10.0 mi SW 5.8 mph - N/A   Clear
9:35 AM 86.0 °F 87.3 °F 64.4 °F 48% 29.94 in 10.0 mi South 8.1 mph - N/A   Clear
9:55 AM 86.0 °F 87.3 °F 64.4 °F 48% 29.94 in 10.0 mi South 17.3 mph - N/A   Clear
10:15 AM 87.8 °F 89.4 °F 64.4 °F 46% 29.94 in 10.0 mi South 18.4 mph - N/A   Clear
10:35 AM 87.8 °F 89.4 °F 64.4 °F 46% 29.94 in 10.0 mi South 17.3 mph 20.7 mph N/A   Clear
10:55 AM 89.6 °F 91.1 °F 64.4 °F 43% 29.95 in 10.0 mi South 13.8 mph 18.4 mph N/A   Clear
11:15 AM 89.6 °F 91.1 °F 64.4 °F 43% 29.95 in 10.0 mi South 17.3 mph 24.2 mph N/A Thunderstorm Clear
11:35 AM 91.4 °F 93.2 °F 64.4 °F 41% 29.94 in 10.0 mi South 12.7 mph - N/A   Clear
11:55 AM 91.4 °F 92.1 °F 62.6 °F 38% 29.93 in 10.0 mi South 13.8 mph 21.9 mph N/A   Clear
12:15 PM 93.2 °F 93.3 °F 60.8 °F 34% 29.92 in 10.0 mi SSW 18.4 mph 21.9 mph N/A   Clear
12:35 PM 91.4 °F 89.9 °F 57.2 °F 31% 29.92 in 10.0 mi SSW 13.8 mph 19.6 mph N/A   Clear
12:55 PM 91.4 °F 89.9 °F 57.2 °F 31% 29.91 in 10.0 mi South 12.7 mph 25.3 mph N/A   Clear
1:15 PM 93.2 °F 92.6 °F 59.0 °F 32% 29.91 in 10.0 mi South 12.7 mph 20.7 mph N/A   Clear
1:35 PM 93.2 °F 92.6 °F 59.0 °F 32% 29.90 in 10.0 mi South 11.5 mph 21.9 mph N/A   Clear
1:55 PM 93.2 °F 92.6 °F 59.0 °F 32% 29.89 in 10.0 mi South 12.7 mph 20.7 mph N/A   Clear
2:15 PM 95.0 °F 94.4 °F 59.0 °F 30% 29.89 in 10.0 mi SSW 9.2 mph 28.8 mph N/A   Clear
2:35 PM 95.0 °F 94.4 °F 59.0 °F 30% 29.87 in 10.0 mi South 18.4 mph 24.2 mph N/A   Clear
2:55 PM 95.0 °F 93.7 °F 57.2 °F 28% 29.86 in 10.0 mi South 19.6 mph 24.2 mph N/A   Clear
3:15 PM 96.8 °F 95.8 °F 57.2 °F 27% 29.85 in 10.0 mi South 17.3 mph 24.2 mph N/A   Clear
3:35 PM 96.8 °F 96.2 °F 59.0 °F 28% 29.85 in 10.0 mi SSW 12.7 mph 27.6 mph N/A   Clear
3:55 PM 96.8 °F 96.2 °F 59.0 °F 28% 29.84 in 10.0 mi South 12.7 mph 23.0 mph N/A   Partly Cloudy
4:15 PM 96.8 °F 95.8 °F 57.2 °F 27% 29.83 in 10.0 mi SSE 17.3 mph 28.8 mph N/A   Clear
4:35 PM 96.8 °F 95.1 °F 55.4 °F 25% 29.83 in 10.0 mi SSE 11.5 mph 20.7 mph N/A   Clear
4:55 PM 98.6 °F 96.4 °F 53.6 °F 22% 29.82 in 10.0 mi South 10.4 mph 19.6 mph N/A   Clear
5:15 PM 98.6 °F 97.2 °F 55.4 °F 24% 29.82 in 10.0 mi SSE 17.3 mph 23.0 mph N/A   Clear
5:35 PM 98.6 °F 97.2 °F 55.4 °F 24% 29.81 in 10.0 mi SSE 11.5 mph 19.6 mph N/A   Clear
5:55 PM 98.6 °F 97.2 °F 55.4 °F 24% 29.81 in 10.0 mi South 10.4 mph - N/A   Clear
6:15 PM 96.8 °F 95.8 °F 57.2 °F 27% 29.81 in 10.0 mi South 11.5 mph 17.3 mph N/A   Clear
6:35 PM 96.8 °F 95.8 °F 57.2 °F 27% 29.81 in 10.0 mi SSE 12.7 mph - N/A   Clear
6:55 PM 96.8 °F 95.8 °F 57.2 °F 27% 29.81 in 10.0 mi SSE 11.5 mph - N/A   Clear
7:15 PM 95.0 °F 93.7 °F 57.2 °F 28% 29.81 in 10.0 mi South 11.5 mph 16.1 mph N/A   Clear
7:35 PM 95.0 °F 96.0 °F 62.6 °F 34% 29.82 in 10.0 mi SSE 15.0 mph - N/A   Clear
7:55 PM 95.0 °F 95.2 °F 60.8 °F 32% 29.83 in 10.0 mi SSE 10.4 mph - N/A   Clear
8:15 PM 93.2 °F 93.3 °F 60.8 °F 34% 29.83 in 10.0 mi SSE 6.9 mph - N/A   Clear
8:35 PM 93.2 °F 94.1 °F 62.6 °F 36% 29.85 in 10.0 mi SW 5.8 mph - N/A   Clear
8:55 PM 91.4 °F 92.1 °F 62.6 °F 38% 29.86 in 10.0 mi SSW 3.5 mph - N/A   Clear
9:15 PM 91.4 °F 92.1 °F 62.6 °F 38% 29.86 in 10.0 mi SSW 5.8 mph - N/A   Clear
9:35 PM 89.6 °F 90.1 °F 62.6 °F 40% 29.87 in 10.0 mi SSW 5.8 mph - N/A   Clear
9:55 PM 89.6 °F 90.1 °F 62.6 °F 40% 29.87 in 10.0 mi SSW 6.9 mph - N/A   Clear
10:15 PM 89.6 °F 90.1 °F 62.6 °F 40% 29.88 in 10.0 mi South 6.9 mph - N/A   Clear
10:35 PM 89.6 °F 90.1 °F 62.6 °F 40% 29.88 in 10.0 mi South 8.1 mph - N/A   Clear
10:55 PM 87.8 °F 88.5 °F 62.6 °F 43% 29.88 in 10.0 mi South 5.8 mph - N/A   Clear
11:15 PM 87.8 °F 88.5 °F 62.6 °F 43% 29.88 in 10.0 mi Calm Calm - N/A   Clear
11:35 PM 86.0 °F 86.6 °F 62.6 °F 45% 29.89 in 10.0 mi SE 4.6 mph - N/A   Clear
11:55 PM 86.0 °F 86.6 °F 62.6 °F 45% 29.89 in 10.0 mi SSW 5.8 mph - N/A   Clear